Time;durP1;ratioP1;P1;durP2;ratioP2;P2;SDS_P1;SDS_P2;PMS_P1;PMS_P2;Temp;Humidity;BMP_temperature;BMP_pressure;BME280_temperature;BME280_humidity;BME280_pressure;Samples;Min_cycle;Max_cycle;Signal;HPM_P1;HPM_P2
2022/11/27 00:00:56;;;;;;;23.08;13.02;;;;;;;5.74;100.00;101761.84;4993597;28;20030;-78
2022/11/27 00:03:21;;;;;;;19.90;12.43;;;;;;;6.03;100.00;101824.72;4994776;28;20046;-76
2022/11/27 00:05:57;;;;;;;18.98;11.95;;;;;;;6.25;100.00;101865.56;4982361;28;20052;-76
2022/11/27 00:08:26;;;;;;;20.05;12.82;;;;;;;6.38;100.00;101852.22;5006205;28;20097;-76
2022/11/27 00:10:52;;;;;;;17.88;11.32;;;;;;;5.61;100.00;101723.09;5002430;28;20053;-77
2022/11/27 00:13:17;;;;;;;21.30;12.82;;;;;;;6.36;100.00;101850.38;5003291;28;20722;-75
2022/11/27 00:15:43;;;;;;;17.13;12.55;;;;;;;6.02;100.00;101791.69;4989333;28;20049;-75
2022/11/27 00:18:11;;;;;;;20.17;14.75;;;;;;;5.04;100.00;101612.34;4988898;28;20138;-75
2022/11/27 00:20:37;;;;;;;19.40;12.25;;;;;;;5.60;100.00;101718.75;4981923;28;20129;-75
2022/11/27 00:23:03;;;;;;;17.55;12.43;;;;;;;6.43;100.00;101868.03;5015477;28;20042;-75
2022/11/27 00:25:28;;;;;;;18.60;11.57;;;;;;;5.80;100.00;101749.06;4998789;28;20583;-77
2022/11/27 00:27:53;;;;;;;18.65;12.15;;;;;;;6.23;100.00;101849.00;5003715;28;20040;-78
2022/11/27 00:30:19;;;;;;;23.02;16.42;;;;;;;6.25;100.00;101847.31;5011115;28;20513;-75
2022/11/27 00:32:44;;;;;;;22.50;16.65;;;;;;;5.36;100.00;101693.47;5008417;28;20497;-74
2022/11/27 00:35:10;;;;;;;17.33;12.20;;;;;;;6.21;100.00;101846.31;5004568;28;20043;-77
2022/11/27 00:37:35;;;;;;;25.75;13.35;;;;;;;5.65;100.00;101751.94;4994052;28;20087;-77
2022/11/27 00:40:01;;;;;;;18.25;13.18;;;;;;;6.29;100.00;101854.44;5021078;28;20060;-75
2022/11/27 00:42:26;;;;;;;32.72;14.30;;;;;;;6.16;100.00;101849.53;4998687;28;20426;-78
2022/11/27 00:44:52;;;;;;;20.50;13.02;;;;;;;5.46;100.00;101721.66;4999874;28;20053;-75
2022/11/27 00:47:18;;;;;;;20.40;12.30;;;;;;;6.11;100.00;101834.63;4998582;28;20046;-76
2022/11/27 00:49:45;;;;;;;20.00;11.60;;;;;;;5.71;100.00;101774.72;4999360;28;20052;-76
2022/11/27 00:52:11;;;;;;;16.85;10.88;;;;;;;6.06;100.00;101835.25;5010952;28;20037;-77
2022/11/27 00:54:36;;;;;;;15.93;10.52;;;;;;;5.54;100.00;101732.38;4993766;28;20053;-76
2022/11/27 00:57:02;;;;;;;19.17;12.80;;;;;;;5.76;100.00;101799.28;5001511;28;20401;-77
2022/11/27 00:59:27;;;;;;;18.63;11.60;;;;;;;6.07;100.00;101845.75;4997461;28;20070;-77
2022/11/27 01:01:53;;;;;;;19.45;12.20;;;;;;;6.05;100.00;101842.19;4989371;28;20053;-76
2022/11/27 01:04:18;;;;;;;17.75;12.10;;;;;;;5.92;100.00;101816.41;4988470;28;20066;-75
2022/11/27 01:06:44;;;;;;;15.73;11.02;;;;;;;5.71;100.00;101754.81;5002546;28;20061;-75
2022/11/27 01:09:11;;;;;;;19.00;12.77;;;;;;;5.74;100.00;101754.03;4995218;28;20506;-76
2022/11/27 01:11:38;;;;;;;17.50;10.73;;;;;;;6.19;100.00;101853.19;4971173;28;20648;-75
2022/11/27 01:14:15;;;;;;;15.20;9.90;;;;;;;5.44;100.00;101738.91;4970687;28;20325;-76
2022/11/27 01:16:41;;;;;;;17.05;11.20;;;;;;;6.13;100.00;101865.94;4994869;28;20045;-77
2022/11/27 01:19:09;;;;;;;18.13;12.00;;;;;;;6.25;100.00;101878.59;4997892;28;20247;-77
2022/11/27 01:21:34;;;;;;;26.30;11.20;;;;;;;6.24;100.00;101854.25;4977237;28;20104;-76
2022/11/27 01:24:01;;;;;;;17.55;11.77;;;;;;;6.38;100.00;101867.84;5001458;28;20502;-75
2022/11/27 01:26:27;;;;;;;16.27;10.85;;;;;;;6.10;100.00;101834.56;4997778;28;20077;-76
2022/11/27 01:28:54;;;;;;;15.60;11.07;;;;;;;6.32;100.00;101857.16;5003551;28;20415;-75
2022/11/27 01:31:23;;;;;;;19.45;13.63;;;;;;;6.21;100.00;101838.50;4993583;28;20125;-77
2022/11/27 01:34:07;;;;;;;17.85;13.32;;;;;;;6.08;100.00;101817.97;4994567;28;20081;-75
2022/11/27 01:36:33;;;;;;;;;;;;;;;6.34;100.00;101866.84;5004706;28;20414;-77
2022/11/27 01:38:59;;;;;;;13.82;10.50;;;;;;;5.77;100.00;101755.88;5006434;28;19921;-75
2022/11/27 01:41:31;;;;;;;18.13;9.10;;;;;;;6.44;100.00;101868.13;4996518;28;20054;-76
2022/11/27 01:44:16;;;;;;;17.75;10.77;;;;;;;6.22;100.00;101852.41;4991528;28;20133;-76
2022/11/27 01:46:45;;;;;;;16.45;9.43;;;;;;;6.29;100.00;101864.88;4968904;28;20405;-78
2022/11/27 01:49:11;;;;;;;23.88;13.13;;;;;;;6.27;100.00;101875.22;5010974;28;20034;-78
2022/11/27 01:51:51;;;;;;;16.38;11.35;;;;;;;6.24;100.00;101854.25;5004218;28;20628;-75
2022/11/27 01:54:19;;;;;;;18.10;13.55;;;;;;;5.59;100.00;101737.78;5007399;28;20041;-74
2022/11/27 01:56:49;;;;;;;18.35;11.23;;;;;;;6.25;100.00;101858.66;4996810;28;20092;-76
2022/11/27 01:59:17;;;;;;;20.90;11.50;;;;;;;6.30;100.00;101864.06;4982711;28;20085;-75
2022/11/27 02:01:42;;;;;;;19.02;11.30;;;;;;;6.26;100.00;101876.06;4987442;28;20066;-76
2022/11/27 02:04:08;;;;;;;20.95;14.25;;;;;;;6.31;100.00;101853.69;4993768;28;20028;-77
2022/11/27 02:06:34;;;;;;;16.08;11.15;;;;;;;5.39;100.00;101723.94;4990001;28;20064;-75
2022/11/27 02:08:59;;;;;;;17.58;9.20;;;;;;;5.70;100.00;101772.97;4985198;28;23605;-75
2022/11/27 02:11:43;;;;;;;17.38;11.43;;;;;;;6.23;100.00;101877.66;5002155;28;20061;-74
2022/11/27 02:14:38;;;;;;;19.20;11.18;;;;;;;5.46;100.00;101737.25;5004209;28;20053;-76
2022/11/27 02:17:26;;;;;;;19.08;11.13;;;;;;;6.28;100.00;101868.31;5006179;28;20488;-75
2022/11/27 02:20:17;;;;;;;19.30;10.65;;;;;;;6.26;100.00;101863.03;4974251;28;20053;-76
2022/11/27 02:23:12;;;;;;;14.18;10.70;;;;;;;6.33;100.00;101867.66;4965863;28;20046;-76
2022/11/27 02:25:55;;;;;;;16.90;11.63;;;;;;;6.32;100.00;101867.59;4971075;28;20038;-76
2022/11/27 02:28:58;;;;;;;17.65;10.52;;;;;;;6.23;100.00;101869.84;5009935;28;20036;-75
2022/11/27 02:31:42;;;;;;;16.52;11.15;;;;;;;6.22;100.00;101866.31;5008076;28;20044;-76
2022/11/27 02:34:23;;;;;;;19.02;12.63;;;;;;;6.13;100.00;101847.72;5001572;28;20099;-76
2022/11/27 02:36:57;;;;;;;16.58;10.63;;;;;;;6.07;100.00;101842.25;4999068;28;20093;-75
2022/11/27 02:39:26;;;;;;;;;;;;;;;6.17;100.00;101869.59;4995545;28;20073;-76
2022/11/27 02:42:25;;;;;;;19.13;13.25;;;;;;;6.16;100.00;101865.19;4999582;28;19932;-76
2022/11/27 02:45:01;;;;;;;18.20;11.90;;;;;;;6.19;100.00;101880.97;4958144;28;20145;-75
2022/11/27 02:47:29;;;;;;;20.15;11.93;;;;;;;6.16;100.00;101866.09;4996974;28;20054;-75
2022/11/27 02:49:56;;;;;;;21.38;14.95;;;;;;;5.24;100.00;101719.88;4991936;28;20053;-76
2022/11/27 02:52:24;;;;;;;20.80;14.20;;;;;;;5.88;100.00;101851.00;5001531;28;20030;-77
2022/11/27 02:54:53;;;;;;;18.17;12.75;;;;;;;5.46;100.00;101749.41;5006099;28;20029;-76
2022/11/27 02:57:20;;;;;;;25.63;16.52;;;;;;;5.76;100.00;101809.69;4999221;28;20038;-77
2022/11/27 02:59:47;;;;;;;20.00;12.18;;;;;;;6.19;100.00;101871.44;4975873;28;20486;-77
2022/11/27 03:02:18;;;;;;;16.42;12.73;;;;;;;5.41;100.00;101744.00;4995250;28;20054;-76
2022/11/27 03:04:49;;;;;;;24.13;15.38;;;;;;;5.59;100.00;101769.91;4995997;28;20121;-75
2022/11/27 03:07:22;;;;;;;25.67;13.88;;;;;;;5.74;100.00;101816.53;4996853;28;20034;-77
2022/11/27 03:09:51;;;;;;;18.95;13.48;;;;;;;5.40;100.00;101869.75;4989482;28;20405;-77
2022/11/27 03:12:17;;;;;;;22.83;16.73;;;;;;;4.69;100.00;101734.75;4985825;28;20401;-76
2022/11/27 03:14:45;;;;;;;22.23;12.93;;;;;;;5.37;100.00;101856.59;4983341;28;20056;-76
2022/11/27 03:17:26;;;;;;;22.05;13.00;;;;;;;5.52;100.00;101877.19;4994051;28;20070;-76
2022/11/27 03:20:09;;;;;;;17.17;12.25;;;;;;;5.86;100.00;101882.19;4977062;28;20054;-76
2022/11/27 03:22:35;;;;;;;19.23;12.35;;;;;;;6.12;100.00;101879.81;4990265;28;20126;-77
2022/11/27 03:25:00;;;;;;;18.88;12.57;;;;;;;6.19;100.00;101874.03;5008119;28;20112;-75
2022/11/27 03:27:34;;;;;;;17.00;11.38;;;;;;;5.19;100.00;101749.97;4992926;28;20042;-76
2022/11/27 03:30:03;;;;;;;20.25;12.18;;;;;;;5.59;100.00;101821.97;4992776;28;20061;-77
2022/11/27 03:32:30;;;;;;;16.50;10.73;;;;;;;5.88;100.00;101843.19;4995635;28;20050;-77
2022/11/27 03:34:56;;;;;;;19.73;11.57;;;;;;;6.08;100.00;101883.13;4997038;28;20061;-76
2022/11/27 03:37:22;;;;;;;22.98;12.57;;;;;;;5.35;100.00;101746.31;5007142;28;20042;-75
2022/11/27 03:39:48;;;;;;;18.70;11.23;;;;;;;5.48;100.00;101849.28;5010937;28;20041;-77
2022/11/27 03:42:19;;;;;;;20.65;13.13;;;;;;;5.39;100.00;101890.53;5007333;28;20103;-75
2022/11/27 03:45:14;;;;;;;21.67;12.35;;;;;;;5.80;100.00;101874.09;4996197;28;20085;-76
2022/11/27 03:47:45;;;;;;;18.83;11.00;;;;;;;5.85;100.00;101887.31;4990700;28;20060;-75
2022/11/27 03:50:27;;;;;;;15.52;9.82;;;;;;;5.58;100.00;101887.00;4997748;28;20052;-75
2022/11/27 03:53:21;;;;;;;15.77;10.55;;;;;;;5.92;100.00;101855.47;5002829;28;20097;-75
2022/11/27 03:55:49;;;;;;;17.13;11.95;;;;;;;6.10;100.00;101882.34;5003547;28;20045;-77
2022/11/27 03:58:28;;;;;;;16.98;11.27;;;;;;;5.84;100.00;101860.38;5009162;28;20053;-75
2022/11/27 04:00:56;;;;;;;18.30;12.55;;;;;;;5.91;100.00;101891.06;5001960;28;20045;-76
2022/11/27 04:03:29;;;;;;;19.38;11.48;;;;;;;5.81;100.00;101830.72;5001645;28;20057;-75
2022/11/27 04:05:55;;;;;;;19.85;10.80;;;;;;;5.17;100.00;101733.41;5005094;28;20141;-76
2022/11/27 04:08:20;;;;;;;16.38;11.05;;;;;;;5.79;100.00;101874.03;5009078;28;20137;-75
2022/11/27 04:10:46;;;;;;;17.63;11.30;;;;;;;5.24;100.00;101768.38;5008530;28;20540;-77
2022/11/27 04:13:12;;;;;;;20.17;11.38;;;;;;;6.00;100.00;101872.38;5010513;28;20037;-75
2022/11/27 04:15:37;;;;;;;17.58;10.70;;;;;;;6.07;100.00;101863.09;5007223;28;20054;-77
2022/11/27 04:18:03;;;;;;;16.15;11.10;;;;;;;6.00;100.00;101851.53;4996069;28;20108;-76
2022/11/27 04:20:29;;;;;;;18.42;10.75;;;;;;;5.73;100.00;101840.78;4999600;28;20054;-75
2022/11/27 04:22:55;;;;;;;19.23;11.65;;;;;;;5.35;100.00;101771.47;5001874;28;20047;-77
2022/11/27 04:25:21;;;;;;;21.08;12.23;;;;;;;5.96;100.00;101877.38;4990498;28;20129;-76
2022/11/27 04:27:46;;;;;;;28.48;12.07;;;;;;;6.03;100.00;101875.09;5007243;28;20048;-75
2022/11/27 04:30:12;;;;;;;16.88;11.40;;;;;;;5.75;100.00;101825.25;5007763;28;20053;-75
2022/11/27 04:32:38;;;;;;;27.52;12.63;;;;;;;5.76;100.00;101843.56;5008156;28;20690;-76
2022/11/27 04:35:04;;;;;;;25.33;11.43;;;;;;;5.19;100.00;101747.38;5013647;28;20045;-76
2022/11/27 04:37:30;;;;;;;14.43;11.43;;;;;;;5.26;100.00;101736.41;5008292;28;20448;-76
2022/11/27 04:39:55;;;;;;;15.73;10.07;;;;;;;5.63;100.00;101857.75;4990634;28;20038;-76
2022/11/27 04:42:21;;;;;;;15.98;9.57;;;;;;;5.73;100.00;101890.28;5005982;28;20057;-76
2022/11/27 04:44:46;;;;;;;13.25;10.13;;;;;;;5.01;100.00;101764.78;5005352;28;20046;-76
2022/11/27 04:47:12;;;;;;;19.85;11.93;;;;;;;5.69;100.00;101868.44;5003158;28;20046;-75
2022/11/27 04:49:37;;;;;;;23.25;10.32;;;;;;;5.35;100.00;101850.44;4998214;28;20088;-75
2022/11/27 04:52:03;;;;;;;17.00;10.55;;;;;;;5.07;100.00;101736.44;5010326;28;20783;-75
2022/11/27 04:54:29;;;;;;;17.92;10.55;;;;;;;5.92;100.00;101894.56;4990497;28;20054;-75
2022/11/27 04:56:54;;;;;;;16.63;10.15;;;;;;;5.93;100.00;101902.44;4989201;28;20231;-76
2022/11/27 04:59:20;;;;;;;19.63;10.40;;;;;;;5.80;100.00;101897.53;4994948;28;20070;-75
2022/11/27 05:01:46;;;;;;;16.83;11.13;;;;;;;4.74;100.00;101772.25;4989728;28;20581;-75
2022/11/27 05:04:11;;;;;;;22.52;10.43;;;;;;;5.38;100.00;101889.59;4990709;28;20545;-74
2022/11/27 05:06:36;;;;;;;17.02;12.02;;;;;;;5.16;100.00;101785.41;4982642;28;20054;-74
2022/11/27 05:09:02;;;;;;;16.17;11.23;;;;;;;4.77;100.00;101773.25;4999357;28;20053;-78
2022/11/27 05:11:30;;;;;;;23.33;12.23;;;;;;;5.20;100.00;101873.19;5003158;28;20034;-75
2022/11/27 05:14:29;;;;;;;20.83;13.18;;;;;;;4.39;100.00;101768.91;5002838;28;20132;-75
2022/11/27 05:16:50;;;;;;;17.80;10.57;;;;;;;5.05;100.00;101879.44;4999110;28;20072;-77
2022/11/27 05:19:17;;;;;;;18.02;11.00;;;;;;;5.54;100.00;101914.63;4997457;28;20032;-75
2022/11/27 05:21:44;;;;;;;16.90;11.43;;;;;;;5.64;100.00;101911.63;5005615;28;20046;-77
2022/11/27 05:24:10;;;;;;;25.10;11.32;;;;;;;5.61;100.00;101898.44;5003466;28;20049;-76
2022/11/27 05:26:37;;;;;;;18.00;11.05;;;;;;;5.61;100.00;101913.19;5005206;28;20049;-78
2022/11/27 05:29:03;;;;;;;24.63;13.73;;;;;;;4.92;100.00;101801.69;4999610;28;20054;-78
2022/11/27 05:31:28;;;;;;;21.60;11.60;;;;;;;5.25;100.00;101824.84;4990504;28;20061;-75
2022/11/27 05:33:54;;;;;;;25.58;12.50;;;;;;;5.61;100.00;101882.81;5003267;28;20502;-75
2022/11/27 05:36:19;;;;;;;20.88;11.77;;;;;;;5.62;100.00;101920.16;5005510;28;20469;-77
2022/11/27 05:38:45;;;;;;;21.02;11.20;;;;;;;5.41;100.00;101870.66;4994376;28;20801;-75
2022/11/27 05:41:10;;;;;;;18.33;11.23;;;;;;;5.45;100.00;101872.56;5001803;28;20051;-77
2022/11/27 05:43:36;;;;;;;26.40;12.77;;;;;;;5.67;100.00;101897.84;4989442;28;20042;-77
2022/11/27 05:46:06;;;;;;;17.92;12.25;;;;;;;4.41;100.00;101695.38;4997086;28;20030;-77
2022/11/27 05:48:32;;;;;;;20.13;13.52;;;;;;;5.79;100.00;101921.81;5000290;28;20038;-76
2022/11/27 05:50:58;;;;;;;16.90;11.43;;;;;;;5.59;100.00;101896.59;4996692;28;20049;-75
2022/11/27 05:53:24;;;;;;;17.80;12.93;;;;;;;5.79;100.00;101926.13;4995555;28;20057;-75
2022/11/27 05:55:49;;;;;;;20.10;13.98;;;;;;;5.79;100.00;101897.47;5001377;28;20046;-75
2022/11/27 05:58:15;;;;;;;25.55;13.65;;;;;;;5.39;100.00;101849.75;5004462;28;20048;-76
2022/11/27 06:00:40;;;;;;;19.17;12.27;;;;;;;5.20;100.00;101800.31;5003436;28;20046;-75
2022/11/27 06:03:06;;;;;;;19.35;11.40;;;;;;;4.88;100.00;101784.16;4999583;28;20053;-74
2022/11/27 06:05:31;;;;;;;21.08;12.57;;;;;;;5.63;100.00;101935.84;4993531;28;20058;-76
2022/11/27 06:07:57;;;;;;;21.65;13.02;;;;;;;5.59;100.00;101896.59;4993091;28;20052;-74
2022/11/27 06:10:22;;;;;;;15.90;11.40;;;;;;;5.82;100.00;101887.19;5009663;28;20037;-75
2022/11/27 06:12:47;;;;;;;31.90;13.68;;;;;;;5.50;100.00;101826.78;5006146;28;20034;-75
2022/11/27 06:15:13;;;;;;;16.77;11.63;;;;;;;5.20;100.00;101788.19;5002175;28;20029;-75
2022/11/27 06:17:38;;;;;;;20.58;13.98;;;;;;;5.81;100.00;101883.69;4995585;28;20061;-74
2022/11/27 06:20:05;;;;;;;19.23;11.48;;;;;;;4.71;100.00;101678.50;4990077;28;20156;-75
2022/11/27 06:22:30;;;;;;;14.85;10.15;;;;;;;5.61;100.00;101815.13;4999872;28;20042;-77
2022/11/27 06:24:56;;;;;;;29.60;12.30;;;;;;;5.49;100.00;101784.25;5000719;28;20370;-77
2022/11/27 06:27:21;;;;;;;17.73;12.10;;;;;;;6.15;100.00;101882.53;5000772;28;20157;-77
2022/11/27 06:29:47;;;;;;;17.60;13.02;;;;;;;5.68;100.00;101801.53;5004886;28;20520;-76
2022/11/27 06:32:12;;;;;;;18.50;10.90;;;;;;;5.98;100.00;101844.47;5000286;28;20053;-77
2022/11/27 06:34:38;;;;;;;16.55;10.52;;;;;;;6.52;100.00;101918.84;4985888;28;20104;-77
2022/11/27 06:37:03;;;;;;;24.33;14.50;;;;;;;6.29;100.00;101876.19;4989684;28;20038;-76
2022/11/27 06:39:29;;;;;;;21.40;11.88;;;;;;;6.14;100.00;101917.25;4994100;28;20129;-76
2022/11/27 06:41:54;;;;;;;18.73;11.95;;;;;;;6.37;100.00;101919.91;4981245;28;20049;-76
2022/11/27 06:44:20;;;;;;;18.80;10.20;;;;;;;5.75;100.00;101789.66;4999888;28;20038;-75
2022/11/27 06:46:45;;;;;;;19.08;9.43;;;;;;;6.34;100.00;101868.53;4998483;28;20089;-77
2022/11/27 06:49:11;;;;;;;20.23;12.82;;;;;;;5.72;100.00;101766.09;4995499;28;20048;-74
2022/11/27 06:51:36;;;;;;;15.38;9.57;;;;;;;5.48;100.00;101799.81;5019082;28;20107;-77
2022/11/27 06:54:02;;;;;;;17.23;10.00;;;;;;;6.47;100.00;101927.31;5003316;28;20481;-76
2022/11/27 06:56:29;;;;;;;17.05;8.57;;;;;;;6.55;100.00;101892.00;5002523;28;20672;-76
2022/11/27 06:59:00;;;;;;;12.80;8.38;;;;;;;6.68;100.00;101909.03;4997565;28;20441;-75
2022/11/27 07:01:27;;;;;;;14.02;7.95;;;;;;;6.66;100.00;101924.63;5003307;28;20065;-75
2022/11/27 07:03:53;;;;;;;11.82;7.38;;;;;;;6.40;100.00;101894.88;5002430;28;20033;-75
2022/11/27 07:06:21;;;;;;;13.95;9.88;;;;;;;5.87;100.00;101773.66;4994718;28;20498;-76
2022/11/27 07:08:46;;;;;;;13.07;8.35;;;;;;;6.52;100.00;101900.59;4994919;28;20057;-75
2022/11/27 07:11:17;;;;;;;17.98;11.90;;;;;;;6.01;100.00;101797.69;4976038;28;20058;-76
2022/11/27 07:13:43;;;;;;;11.73;7.90;;;;;;;5.75;100.00;101801.81;5013967;28;21518;-75
2022/11/27 07:16:10;;;;;;;14.93;9.90;;;;;;;5.84;100.00;101828.25;5014921;28;20179;-75
2022/11/27 07:18:38;;;;;;;12.85;8.43;;;;;;;6.72;100.00;101924.88;5005450;28;20093;-75
2022/11/27 07:21:04;;;;;;;16.65;11.27;;;;;;;6.48;100.00;101840.44;5007233;28;20046;-76
2022/11/27 07:23:31;;;;;;;18.38;11.32;;;;;;;7.08;100.00;101928.88;5000927;28;20796;-77
2022/11/27 07:25:58;;;;;;;13.43;9.05;;;;;;;7.19;100.00;101932.78;4993119;28;20050;-76
2022/11/27 07:28:25;;;;;;;15.88;7.85;;;;;;;7.18;100.00;101931.88;4979491;28;20042;-77
2022/11/27 07:30:59;;;;;;;11.07;6.72;;;;;;;6.04;100.00;101831.69;5006484;28;20049;-76
2022/11/27 07:33:25;;;;;;;13.23;8.98;;;;;;;5.76;100.00;101820.13;4990653;28;20513;-76
2022/11/27 07:36:06;;;;;;;12.93;8.73;;;;;;;5.89;100.00;101805.88;4967449;28;20058;-76
2022/11/27 07:38:48;;;;;;;15.65;10.90;;;;;;;6.28;100.00;101923.06;4973262;28;20058;-76
2022/11/27 07:41:23;;;;;;;14.68;7.40;;;;;;;5.92;100.00;101796.47;4946277;28;20797;-77
2022/11/27 07:43:52;;;;;;;19.23;8.85;;;;;;;6.79;100.00;101912.97;4966388;28;20050;-76
2022/11/27 07:46:24;;;;;;;13.65;8.48;;;;;;;5.97;100.00;101743.69;4971758;28;20104;-76
2022/11/27 07:48:50;;;;;;;15.73;10.55;;;;;;;7.28;100.00;101891.38;4983913;28;20065;-76
2022/11/27 07:51:17;;;;;;;15.32;8.20;;;;;;;6.99;100.00;101806.75;5020836;28;20492;-75
2022/11/27 07:53:44;;;;;;;20.17;11.18;;;;;;;6.81;100.00;101799.09;5009076;28;20053;-76
2022/11/27 07:56:12;;;;;;;17.23;10.95;;;;;;;7.76;100.00;101911.38;5005209;28;20541;-77
2022/11/27 07:58:37;;;;;;;18.17;12.95;;;;;;;7.25;100.00;101804.19;4982664;28;20631;-77
2022/11/27 08:01:08;;;;;;;17.50;11.70;;;;;;;7.89;100.00;101920.53;4979625;28;20034;-76
2022/11/27 08:03:34;;;;;;;16.90;11.45;;;;;;;7.29;100.00;101777.38;5002297;28;20176;-76
2022/11/27 08:06:01;;;;;;;22.38;17.85;;;;;;;8.10;100.00;101907.31;4985774;28;20141;-75
2022/11/27 08:08:26;;;;;;;24.70;16.63;;;;;;;8.28;100.00;101939.31;4979461;28;20062;-75
2022/11/27 08:10:52;;;;;;;24.10;17.33;;;;;;;8.16;100.00;101905.78;4980225;28;20113;-76
2022/11/27 08:13:17;;;;;;;27.90;21.63;;;;;;;7.84;100.00;101865.47;4990539;28;20481;-75
2022/11/27 08:15:44;;;;;;;25.88;19.55;;;;;;;7.92;100.00;101860.53;4982500;28;20442;-75
2022/11/27 08:18:10;;;;;;;34.22;21.50;;;;;;;8.21;100.00;101916.41;4999650;28;20119;-76
2022/11/27 08:20:37;;;;;;;30.85;23.40;;;;;;;8.33;100.00;101914.19;4990674;28;20516;-76
2022/11/27 08:23:04;;;;;;;28.85;22.92;;;;;;;8.50;100.00;101932.22;4973597;28;20058;-75
2022/11/27 08:25:30;;;;;;;31.85;23.55;;;;;;;8.51;100.00;101937.50;4985825;28;20318;-77
2022/11/27 08:27:56;;;;;;;33.40;24.58;;;;;;;8.60;100.00;101929.09;4982403;28;20417;-75
2022/11/27 08:30:22;;;;;;;37.85;26.05;;;;;;;8.40;100.00;101879.59;4981876;28;20391;-75
2022/11/27 08:32:48;;;;;;;34.33;25.48;;;;;;;8.76;100.00;101926.13;4986407;28;20106;-75
2022/11/27 08:35:13;;;;;;;33.38;21.75;;;;;;;8.01;100.00;101809.47;4985522;28;20498;-76
2022/11/27 08:37:39;;;;;;;33.00;23.50;;;;;;;8.09;100.00;101809.69;4986551;28;20031;-75
2022/11/27 08:40:05;;;;;;;28.50;20.45;;;;;;;8.31;100.00;101836.53;4976513;28;20553;-76
2022/11/27 08:42:30;;;;;;;31.45;23.38;;;;;;;8.90;100.00;101934.41;4972182;28;20743;-75
2022/11/27 08:44:56;;;;;;;30.20;23.60;;;;;;;8.94;100.00;101931.03;4988694;28;20046;-76
2022/11/27 08:47:21;;;;;;;32.08;21.80;;;;;;;8.04;100.00;101834.81;4984795;28;20158;-75
2022/11/27 08:49:47;;;;;;;33.45;25.70;;;;;;;8.70;100.00;101941.59;4991397;28;20046;-75
2022/11/27 08:52:12;;;;;;;30.55;22.63;;;;;;;8.75;100.00;101926.06;4989511;28;20114;-75
2022/11/27 08:54:38;;;;;;;26.77;21.48;;;;;;;8.95;100.00;101924.97;4987199;28;20051;-75
2022/11/27 08:57:03;;;;;;;32.92;21.23;;;;;;;8.47;100.00;101825.75;4976635;28;20047;-75
2022/11/27 08:59:29;;;;;;;30.15;17.52;;;;;;;8.85;100.00;101936.00;4978261;28;20841;-75
2022/11/27 09:01:54;;;;;;;27.13;18.42;;;;;;;7.50;100.00;101819.03;4990212;28;20087;-76
2022/11/27 09:04:21;;;;;;;21.00;17.50;;;;;;;8.41;100.00;101935.44;5008354;28;20549;-77
2022/11/27 09:06:51;;;;;;;31.13;20.23;;;;;;;8.19;100.00;101837.03;4996566;28;20029;-74
2022/11/27 09:09:17;;;;;;;58.55;32.08;;;;;;;8.09;100.00;101790.53;4999808;28;20046;-76
2022/11/27 09:11:42;;;;;;;60.97;34.28;;;;;;;8.24;100.00;101846.81;5008943;28;20405;-78
2022/11/27 09:14:10;;;;;;;48.25;32.67;;;;;;;8.85;100.00;101933.38;5003015;28;20050;-77
2022/11/27 09:16:35;;;;;;;46.28;29.00;;;;;;;9.12;100.00;101922.84;5003585;28;20038;-78
2022/11/27 09:19:01;;;;;;;41.00;26.83;;;;;;;8.77;100.00;101848.47;4976197;28;20040;-76
2022/11/27 09:21:31;;;;;;;37.08;24.60;;;;;;;9.11;100.00;101922.78;4983384;28;20050;-78
2022/11/27 09:23:59;;;;;;;30.02;22.00;;;;;;;8.97;100.00;101896.22;4995447;28;20165;-78
2022/11/27 09:26:26;;;;;;;28.98;23.13;;;;;;;8.92;100.00;101892.56;4994341;28;20473;-78
2022/11/27 09:28:53;;;;;;;34.60;22.80;;;;;;;9.17;100.00;101913.41;5016672;28;20528;-76
2022/11/27 09:31:20;;;;;;;39.38;29.45;;;;;;;8.58;100.00;101786.84;5009271;28;20116;-77
2022/11/27 09:33:46;;;;;;;45.60;29.52;;;;;;;9.24;100.00;101902.25;5004790;28;20050;-77
2022/11/27 09:36:13;;;;;;;40.15;27.48;;;;;;;9.21;100.00;101903.91;4992115;28;20805;-77
2022/11/27 09:38:38;;;;;;;38.78;27.05;;;;;;;8.51;100.00;101783.16;5003809;28;20497;-76
2022/11/27 09:41:39;;;;;;;44.67;27.50;;;;;;;9.27;100.00;101890.97;4999524;28;20058;-77
2022/11/27 09:44:26;;;;;;;35.00;25.42;;;;;;;9.16;100.00;101898.53;4988065;28;20502;-77
2022/11/27 09:46:53;;;;;;;36.45;24.92;;;;;;;8.72;100.00;101805.59;4999703;28;20052;-76
2022/11/27 09:49:50;;;;;;;30.13;21.95;;;;;;;9.30;100.00;101896.34;5000796;28;20112;-77
2022/11/27 09:52:18;;;;;;;33.75;24.60;;;;;;;9.32;100.00;101910.38;4996458;28;20065;-79
2022/11/27 09:55:08;;;;;;;29.25;22.30;;;;;;;9.20;100.00;101879.47;5064184;28;20641;-78
2022/11/27 09:57:37;;;;;;;33.70;24.10;;;;;;;9.40;100.00;101903.59;5026342;27;20116;-76
2022/11/27 10:00:14;;;;;;;42.05;24.75;;;;;;;9.30;100.00;101907.69;5012597;28;20427;-76
2022/11/27 10:02:42;;;;;;;31.50;23.90;;;;;;;9.32;100.00;101898.97;5014812;28;20069;-78
2022/11/27 10:05:27;;;;;;;36.42;24.05;;;;;;;9.03;100.00;101864.97;5016017;28;20056;-78
2022/11/27 10:08:01;;;;;;;27.13;21.05;;;;;;;9.31;100.00;101903.34;5015870;28;20045;-79
2022/11/27 10:11:05;;;;;;;30.00;22.48;;;;;;;9.27;100.00;101899.75;5020538;28;20029;-78
2022/11/27 10:13:33;;;;;;;34.60;22.60;;;;;;;9.32;100.00;101907.75;5021572;28;20397;-78
2022/11/27 10:16:10;;;;;;;28.98;20.65;;;;;;;8.90;100.00;101849.72;5017094;28;20109;-76
2022/11/27 10:18:54;;;;;;;38.88;20.05;;;;;;;8.40;100.00;101793.28;5018843;28;20045;-78
2022/11/27 10:21:57;;;;;;;25.67;19.58;;;;;;;9.08;100.00;101887.84;5025673;28;20046;-78
2022/11/27 10:24:51;;;;;;;23.23;16.67;;;;;;;9.07;98.90;101870.34;5019349;28;20073;-80
2022/11/27 10:27:29;;;;;;;24.80;16.60;;;;;;;8.61;98.49;101795.66;5012317;28;20132;-75
2022/11/27 10:29:55;;;;;;;22.40;16.70;;;;;;;8.23;95.90;101731.69;5012678;28;20056;-76
2022/11/27 10:32:25;;;;;;;20.33;15.50;;;;;;;8.61;96.34;101782.59;5005950;28;20041;-77
2022/11/27 10:35:09;;;;;;;22.00;15.25;;;;;;;8.36;98.09;101743.44;5021522;28;20042;-76
2022/11/27 10:37:34;;;;;;;;;;;;;;;9.08;96.95;101882.63;5021009;28;20029;-76
2022/11/27 10:40:10;;;;;;;26.30;17.80;;;;;;;9.18;97.45;101886.38;5018056;28;20442;-77
2022/11/27 10:42:39;;;;;;;24.48;15.45;;;;;;;9.22;95.86;101876.88;5020697;28;20144;-77
2022/11/27 10:45:16;;;;;;;18.88;14.75;;;;;;;8.29;96.21;101771.13;5019632;28;20107;-77
2022/11/27 10:47:45;;;;;;;19.55;14.00;;;;;;;8.43;93.85;101738.47;5015780;28;20053;-77
2022/11/27 10:50:16;;;;;;;21.75;13.38;;;;;;;9.03;93.10;101886.78;5022130;28;20192;-77
2022/11/27 10:53:07;;;;;;;17.95;14.48;;;;;;;8.38;96.70;101739.13;5016878;28;20636;-77
2022/11/27 10:56:03;;;;;;;19.92;14.35;;;;;;;9.15;97.14;101869.69;5020121;28;20129;-77
2022/11/27 10:58:55;;;;;;;19.52;13.13;;;;;;;8.45;97.33;101747.25;5016861;28;20068;-77
2022/11/27 11:01:22;;;;;;;17.75;13.65;;;;;;;9.25;92.60;101864.78;5018316;28;20528;-77
2022/11/27 11:03:48;;;;;;;18.88;15.30;;;;;;;7.99;94.77;101748.41;5021508;28;20684;-77
2022/11/27 11:06:19;;;;;;;23.77;16.88;;;;;;;8.09;96.16;101740.84;5009447;28;20160;-77
2022/11/27 11:08:45;;;;;;;27.15;15.10;;;;;;;9.03;100.00;101852.75;5005882;28;20133;-77
2022/11/27 11:11:10;;;;;;;22.90;13.98;;;;;;;8.35;96.57;101725.97;5009452;28;20494;-77
2022/11/27 11:13:39;;;;;;;21.65;14.25;;;;;;;9.20;96.71;101865.47;5002335;28;20393;-78
2022/11/27 11:16:10;;;;;;;23.10;15.85;;;;;;;9.25;97.36;101841.19;5002432;28;20038;-78
2022/11/27 11:18:50;;;;;;;19.75;14.70;;;;;;;8.65;96.76;101721.66;5005031;28;20077;-78
2022/11/27 11:21:28;;;;;;;30.13;18.85;;;;;;;9.11;98.86;101839.91;5004814;28;20053;-76
2022/11/27 11:24:03;;;;;;;26.25;15.98;;;;;;;7.87;96.11;101692.25;5004194;28;20064;-77